Pagrindinis puslapis
METAR-TAF:

METAR-TAF

Oro uostai :

Ostendė, Belgija

platuma: 51-12N, ilguma: 002-52E, Aukštis: 4 m

Dabartinis oras

Ataskaita buvo paskelbta 34 minutes, ne 04:20 UTC
Vėjas 8 kt iš Rytų
Temperatūra 13°C
Drėgmė 67%
Slėgis 1022 hPa
Matomumas 10 km arba daugiau
nėra debesų žemiau 1500 m ir nėra kamuolinių lietaus debesų

METAR: EBOS 310420Z 08008KT CAVOK 13/07 Q1022 NOSIG

Laikas: 06:54 (04:54 UTC)

Prognozė

Ataskaita buvo paskelbta 5 valandos ir 34 minutes, ne 23:20 UTC
Prognozė galioja nuo 31 metu 00 UTC su 01 metu 06 UTC
Vėjas 10 kt iš Rytų/Šiaurės Rytų
Matomumas 10 km arba daugiau
nėra debesų žemiau 1500 m ir nėra kamuolinių lietaus debesų
Tikimybė 30% :
Laikinai
nuo 31 metu 11 UTC su 31 metu 18 UTC
Vėjas 15 kt iš Rytų/Šiaurės Rytų su gūsio iki 26 kt

TAF: EBOS 302320Z 3100/0106 07010KT CAVOK PROB30 TEMPO 3111/3118 06015G26KT

Orai ataskaitas ir orų prognozės (METAR, TAF).

turimą stotys yra geltonos ir raudonos taškus žemėlapyje.

Perkelti pele per norėdami pamatyti stoties vardą.

Tada spustelėkite, norėdami matyti oro stebėjimo ir prognozės.

Norėdami pakeisti žemėlapį: spustelėkite ant žalios mygtukų su juodo kryžiaus žemyn,; žalią mygtuką su brūkšneliu, jei norite nutolinti; arba žalių rodyklių gretimoms žemėlapius.


METAR-TAF: